Neder Vindinge, Denmark
Current Conditions -  °F | °C
As of 10:20 PM on Friday 31 Oct 2014 (Local Time) from EKRK Reporting Station
Rain Showers Rain Showers  
Wind Chill: 52°   Ceiling: 100
Heat Index: 52°   Visibility: 0.62mi
Dew Point: 52°   Wind: 6mph
Humidity: 100%   Direction: 120°ESE
Pressure: 30.15"   Gusts: NA
Location:  55.03°N, 11.88°E
Report Text: EKRK 312120Z AUTO 12005KT 1000NDV R11/1200VP1500U R29/P1500N-SHRA BR BKN001/// OVC003/// 11/11 Q1021
Loading
Personal Weather Stations






























Interactive Weather Map New forecast layout! Learn more

10-Day Weather Forecast

Advertisements
Track Severe Weather on mobile